Dayton, Washington
Current Conditions -  °F | °C
As of 9:53 PM on Sunday 19 Oct 2014 (Local Time) from KALW Reporting Station
Clear Clear  
Wind Chill: 53°   Ceiling: Unl
Heat Index: 53°   Visibility: 10mi
Dew Point: 47°   Wind: 3mph
Humidity: 80%   Direction: 200°SSW
Pressure: 29.72"   Gusts: NA
Location:  46.32°N, 117.97°W
Report Text: KALW 200453Z AUTO 20003KT 10SM CLR 12/08 A2972 RMK AO2 SLP063 T01170083
Loading
Personal Weather Stations






























Interactive Weather Map
Tropical Storm Tracking
New forecast layout! Learn more

10-Day Weather Forecast

Advertisements
Track Severe Weather on mobile